sensor_id;sensor_type;location;lat;lon;timestamp;P1;durP1;ratioP1;P2;durP2;ratioP2
66593;SDS011;53450;42.584;23.366;2023-01-16T00:00:40;17.23;;;9.70;;
66593;SDS011;53450;42.584;23.366;2023-01-16T00:03:07;19.00;;;9.60;;
66593;SDS011;53450;42.584;23.366;2023-01-16T00:05:33;17.57;;;10.50;;
66593;SDS011;53450;42.584;23.366;2023-01-16T00:07:59;22.17;;;11.73;;
66593;SDS011;53450;42.584;23.366;2023-01-16T00:10:24;15.90;;;10.67;;
66593;SDS011;53450;42.584;23.366;2023-01-16T00:12:50;19.20;;;10.80;;
66593;SDS011;53450;42.584;23.366;2023-01-16T00:15:48;15.87;;;10.27;;
66593;SDS011;53450;42.584;23.366;2023-01-16T00:18:14;21.57;;;10.20;;
66593;SDS011;53450;42.584;23.366;2023-01-16T00:20:40;15.90;;;9.23;;
66593;SDS011;53450;42.584;23.366;2023-01-16T00:23:09;18.10;;;8.67;;
66593;SDS011;53450;42.584;23.366;2023-01-16T00:25:39;15.47;;;8.83;;
66593;SDS011;53450;42.584;23.366;2023-01-16T00:28:09;13.77;;;9.00;;
66593;SDS011;53450;42.584;23.366;2023-01-16T00:30:36;11.40;;;7.17;;
66593;SDS011;53450;42.584;23.366;2023-01-16T00:33:02;15.23;;;8.80;;
66593;SDS011;53450;42.584;23.366;2023-01-16T00:35:28;15.17;;;8.07;;
66593;SDS011;53450;42.584;23.366;2023-01-16T00:37:54;15.30;;;8.60;;
66593;SDS011;53450;42.584;23.366;2023-01-16T00:40:19;14.13;;;7.93;;
66593;SDS011;53450;42.584;23.366;2023-01-16T00:42:45;14.77;;;8.50;;
66593;SDS011;53450;42.584;23.366;2023-01-16T00:45:11;18.73;;;11.00;;
66593;SDS011;53450;42.584;23.366;2023-01-16T00:47:36;18.90;;;10.00;;
66593;SDS011;53450;42.584;23.366;2023-01-16T00:50:02;20.53;;;9.33;;
66593;SDS011;53450;42.584;23.366;2023-01-16T00:52:29;17.53;;;9.07;;
66593;SDS011;53450;42.584;23.366;2023-01-16T00:54:57;13.33;;;8.50;;
66593;SDS011;53450;42.584;23.366;2023-01-16T00:57:23;13.60;;;8.37;;
66593;SDS011;53450;42.584;23.366;2023-01-16T00:59:49;14.33;;;8.20;;
66593;SDS011;53450;42.584;23.366;2023-01-16T01:02:14;10.30;;;7.27;;
66593;SDS011;53450;42.584;23.366;2023-01-16T01:04:40;14.37;;;8.27;;
66593;SDS011;53450;42.584;23.366;2023-01-16T01:07:06;15.07;;;8.67;;
66593;SDS011;53450;42.584;23.366;2023-01-16T01:09:31;13.73;;;8.03;;
66593;SDS011;53450;42.584;23.366;2023-01-16T01:11:57;14.23;;;8.00;;
66593;SDS011;53450;42.584;23.366;2023-01-16T01:14:24;19.70;;;8.37;;
66593;SDS011;53450;42.584;23.366;2023-01-16T01:16:51;15.07;;;7.90;;
66593;SDS011;53450;42.584;23.366;2023-01-16T01:19:17;13.70;;;7.87;;
66593;SDS011;53450;42.584;23.366;2023-01-16T01:21:43;14.23;;;8.40;;
66593;SDS011;53450;42.584;23.366;2023-01-16T01:24:08;13.30;;;9.00;;
66593;SDS011;53450;42.584;23.366;2023-01-16T01:26:35;21.67;;;8.67;;
66593;SDS011;53450;42.584;23.366;2023-01-16T01:29:00;16.90;;;8.57;;
66593;SDS011;53450;42.584;23.366;2023-01-16T01:31:26;25.20;;;10.60;;
66593;SDS011;53450;42.584;23.366;2023-01-16T01:33:52;97.90;;;31.27;;
66593;SDS011;53450;42.584;23.366;2023-01-16T01:36:18;20.70;;;12.43;;
66593;SDS011;53450;42.584;23.366;2023-01-16T01:38:43;26.30;;;13.23;;
66593;SDS011;53450;42.584;23.366;2023-01-16T01:41:14;25.27;;;15.47;;
66593;SDS011;53450;42.584;23.366;2023-01-16T01:43:46;34.33;;;17.57;;
66593;SDS011;53450;42.584;23.366;2023-01-16T01:46:21;31.47;;;16.70;;
66593;SDS011;53450;42.584;23.366;2023-01-16T01:48:52;38.90;;;18.67;;
66593;SDS011;53450;42.584;23.366;2023-01-16T01:51:48;26.67;;;14.87;;
66593;SDS011;53450;42.584;23.366;2023-01-16T01:54:15;24.70;;;14.03;;
66593;SDS011;53450;42.584;23.366;2023-01-16T01:56:46;21.25;;;12.68;;
66593;SDS011;53450;42.584;23.366;2023-01-16T01:59:19;22.45;;;11.95;;
66593;SDS011;53450;42.584;23.366;2023-01-16T02:01:47;28.23;;;12.10;;
66593;SDS011;53450;42.584;23.366;2023-01-16T02:04:14;17.60;;;10.60;;
66593;SDS011;53450;42.584;23.366;2023-01-16T02:06:44;15.20;;;8.83;;
66593;SDS011;53450;42.584;23.366;2023-01-16T02:09:18;15.03;;;8.33;;
66593;SDS011;53450;42.584;23.366;2023-01-16T02:12:12;15.37;;;8.87;;
66593;SDS011;53450;42.584;23.366;2023-01-16T02:14:41;29.73;;;9.50;;
66593;SDS011;53450;42.584;23.366;2023-01-16T02:17:16;18.27;;;11.63;;
66593;SDS011;53450;42.584;23.366;2023-01-16T02:22:45;26.45;;;14.98;;
66593;SDS011;53450;42.584;23.366;2023-01-16T02:31:17;20.83;;;11.37;;
66593;SDS011;53450;42.584;23.366;2023-01-16T02:42:53;19.17;;;9.67;;
66593;SDS011;53450;42.584;23.366;2023-01-16T02:46:01;19.37;;;11.83;;
66593;SDS011;53450;42.584;23.366;2023-01-16T02:56:57;21.33;;;10.73;;
66593;SDS011;53450;42.584;23.366;2023-01-16T02:59:27;22.67;;;11.13;;
66593;SDS011;53450;42.584;23.366;2023-01-16T03:01:55;16.20;;;9.47;;
66593;SDS011;53450;42.584;23.366;2023-01-16T03:24:32;21.13;;;10.93;;
66593;SDS011;53450;42.584;23.366;2023-01-16T03:27:11;17.37;;;10.47;;
66593;SDS011;53450;42.584;23.366;2023-01-16T03:29:46;20.17;;;11.43;;
66593;SDS011;53450;42.584;23.366;2023-01-16T03:32:33;19.80;;;11.57;;
66593;SDS011;53450;42.584;23.366;2023-01-16T03:35:06;18.90;;;12.37;;
66593;SDS011;53450;42.584;23.366;2023-01-16T03:37:51;20.13;;;11.90;;
66593;SDS011;53450;42.584;23.366;2023-01-16T03:40:24;19.27;;;10.80;;
66593;SDS011;53450;42.584;23.366;2023-01-16T03:43:24;18.83;;;10.93;;
66593;SDS011;53450;42.584;23.366;2023-01-16T03:45:59;21.40;;;11.43;;
66593;SDS011;53450;42.584;23.366;2023-01-16T03:50:57;18.57;;;10.77;;
66593;SDS011;53450;42.584;23.366;2023-01-16T03:53:29;22.02;;;11.30;;
66593;SDS011;53450;42.584;23.366;2023-01-16T03:58:31;19.60;;;10.77;;
66593;SDS011;53450;42.584;23.366;2023-01-16T04:04:18;16.30;;;10.00;;
66593;SDS011;53450;42.584;23.366;2023-01-16T04:07:09;21.57;;;12.17;;
66593;SDS011;53450;42.584;23.366;2023-01-16T04:09:58;19.55;;;10.57;;
66593;SDS011;53450;42.584;23.366;2023-01-16T04:12:30;21.80;;;11.00;;
66593;SDS011;53450;42.584;23.366;2023-01-16T04:15:01;28.23;;;14.87;;
66593;SDS011;53450;42.584;23.366;2023-01-16T04:17:29;22.13;;;13.77;;
66593;SDS011;53450;42.584;23.366;2023-01-16T04:19:55;23.10;;;14.23;;
66593;SDS011;53450;42.584;23.366;2023-01-16T04:22:22;20.63;;;12.83;;
66593;SDS011;53450;42.584;23.366;2023-01-16T04:24:49;20.50;;;12.47;;
66593;SDS011;53450;42.584;23.366;2023-01-16T04:27:17;16.67;;;11.60;;
66593;SDS011;53450;42.584;23.366;2023-01-16T04:29:45;20.17;;;12.43;;
66593;SDS011;53450;42.584;23.366;2023-01-16T04:32:11;24.13;;;13.07;;
66593;SDS011;53450;42.584;23.366;2023-01-16T04:34:37;28.53;;;15.83;;
66593;SDS011;53450;42.584;23.366;2023-01-16T04:37:03;28.93;;;15.53;;
66593;SDS011;53450;42.584;23.366;2023-01-16T04:39:29;27.00;;;14.77;;
66593;SDS011;53450;42.584;23.366;2023-01-16T04:41:54;23.77;;;14.13;;
66593;SDS011;53450;42.584;23.366;2023-01-16T04:44:20;27.40;;;16.27;;
66593;SDS011;53450;42.584;23.366;2023-01-16T04:46:46;29.57;;;15.47;;
66593;SDS011;53450;42.584;23.366;2023-01-16T04:49:11;24.07;;;15.23;;
66593;SDS011;53450;42.584;23.366;2023-01-16T04:51:37;22.43;;;14.07;;
66593;SDS011;53450;42.584;23.366;2023-01-16T04:54:04;19.97;;;11.57;;
66593;SDS011;53450;42.584;23.366;2023-01-16T04:56:30;22.40;;;13.07;;
66593;SDS011;53450;42.584;23.366;2023-01-16T04:58:56;22.23;;;12.57;;
66593;SDS011;53450;42.584;23.366;2023-01-16T05:01:22;27.70;;;16.90;;
66593;SDS011;53450;42.584;23.366;2023-01-16T05:03:48;33.53;;;18.43;;
66593;SDS011;53450;42.584;23.366;2023-01-16T05:06:14;32.60;;;15.80;;
66593;SDS011;53450;42.584;23.366;2023-01-16T05:08:40;31.10;;;16.90;;
66593;SDS011;53450;42.584;23.366;2023-01-16T05:11:06;55.37;;;20.77;;
66593;SDS011;53450;42.584;23.366;2023-01-16T05:13:31;35.70;;;18.50;;
66593;SDS011;53450;42.584;23.366;2023-01-16T05:15:57;36.73;;;19.67;;
66593;SDS011;53450;42.584;23.366;2023-01-16T05:18:48;24.85;;;14.75;;
66593;SDS011;53450;42.584;23.366;2023-01-16T05:21:14;25.53;;;14.63;;
66593;SDS011;53450;42.584;23.366;2023-01-16T05:23:39;21.10;;;10.83;;
66593;SDS011;53450;42.584;23.366;2023-01-16T05:26:05;26.07;;;14.43;;
66593;SDS011;53450;42.584;23.366;2023-01-16T05:28:31;31.20;;;16.13;;
66593;SDS011;53450;42.584;23.366;2023-01-16T05:30:57;30.40;;;16.57;;
66593;SDS011;53450;42.584;23.366;2023-01-16T05:33:24;25.00;;;15.13;;
66593;SDS011;53450;42.584;23.366;2023-01-16T05:35:49;29.53;;;16.20;;
66593;SDS011;53450;42.584;23.366;2023-01-16T05:38:16;26.67;;;17.50;;
66593;SDS011;53450;42.584;23.366;2023-01-16T05:40:43;19.33;;;12.40;;
66593;SDS011;53450;42.584;23.366;2023-01-16T05:43:09;22.53;;;13.93;;
66593;SDS011;53450;42.584;23.366;2023-01-16T05:45:35;26.57;;;16.23;;
66593;SDS011;53450;42.584;23.366;2023-01-16T05:48:01;30.27;;;17.40;;
66593;SDS011;53450;42.584;23.366;2023-01-16T05:50:26;28.23;;;15.17;;
66593;SDS011;53450;42.584;23.366;2023-01-16T05:52:53;21.43;;;13.70;;
66593;SDS011;53450;42.584;23.366;2023-01-16T05:55:19;24.30;;;15.33;;
66593;SDS011;53450;42.584;23.366;2023-01-16T05:57:45;24.63;;;15.73;;
66593;SDS011;53450;42.584;23.366;2023-01-16T06:00:10;32.63;;;19.37;;
66593;SDS011;53450;42.584;23.366;2023-01-16T06:02:36;56.07;;;33.17;;
66593;SDS011;53450;42.584;23.366;2023-01-16T06:05:02;42.67;;;25.43;;
66593;SDS011;53450;42.584;23.366;2023-01-16T06:07:28;23.83;;;16.70;;
66593;SDS011;53450;42.584;23.366;2023-01-16T06:09:54;25.33;;;14.87;;
66593;SDS011;53450;42.584;23.366;2023-01-16T06:12:20;21.10;;;12.13;;
66593;SDS011;53450;42.584;23.366;2023-01-16T06:14:46;23.47;;;12.13;;
66593;SDS011;53450;42.584;23.366;2023-01-16T06:17:12;24.63;;;14.67;;
66593;SDS011;53450;42.584;23.366;2023-01-16T06:19:42;27.23;;;14.40;;
66593;SDS011;53450;42.584;23.366;2023-01-16T06:22:09;25.87;;;16.07;;
66593;SDS011;53450;42.584;23.366;2023-01-16T06:24:34;41.13;;;22.97;;
66593;SDS011;53450;42.584;23.366;2023-01-16T06:27:00;72.27;;;25.50;;
66593;SDS011;53450;42.584;23.366;2023-01-16T06:29:25;38.33;;;21.53;;
66593;SDS011;53450;42.584;23.366;2023-01-16T06:31:51;51.17;;;22.97;;
66593;SDS011;53450;42.584;23.366;2023-01-16T06:34:16;37.40;;;17.83;;
66593;SDS011;53450;42.584;23.366;2023-01-16T06:36:42;35.93;;;19.47;;
66593;SDS011;53450;42.584;23.366;2023-01-16T06:39:11;41.20;;;24.73;;
66593;SDS011;53450;42.584;23.366;2023-01-16T06:41:37;46.37;;;25.43;;
66593;SDS011;53450;42.584;23.366;2023-01-16T06:44:02;64.27;;;33.20;;
66593;SDS011;53450;42.584;23.366;2023-01-16T06:46:28;73.53;;;39.20;;
66593;SDS011;53450;42.584;23.366;2023-01-16T06:48:54;96.93;;;45.77;;
66593;SDS011;53450;42.584;23.366;2023-01-16T06:51:20;76.90;;;40.97;;
66593;SDS011;53450;42.584;23.366;2023-01-16T06:53:45;33.00;;;19.10;;
66593;SDS011;53450;42.584;23.366;2023-01-16T06:56:11;41.77;;;19.30;;
66593;SDS011;53450;42.584;23.366;2023-01-16T06:58:37;42.07;;;22.23;;
66593;SDS011;53450;42.584;23.366;2023-01-16T07:01:02;67.10;;;29.67;;
66593;SDS011;53450;42.584;23.366;2023-01-16T07:03:28;60.57;;;26.23;;
66593;SDS011;53450;42.584;23.366;2023-01-16T07:05:54;42.33;;;22.40;;
66593;SDS011;53450;42.584;23.366;2023-01-16T07:08:19;65.63;;;28.37;;
66593;SDS011;53450;42.584;23.366;2023-01-16T07:10:45;62.30;;;28.07;;
66593;SDS011;53450;42.584;23.366;2023-01-16T07:13:11;65.07;;;28.63;;
66593;SDS011;53450;42.584;23.366;2023-01-16T07:15:36;60.17;;;28.37;;
66593;SDS011;53450;42.584;23.366;2023-01-16T07:18:21;68.97;;;31.73;;
66593;SDS011;53450;42.584;23.366;2023-01-16T07:21:09;88.47;;;39.13;;
66593;SDS011;53450;42.584;23.366;2023-01-16T07:24:14;97.63;;;41.50;;
66593;SDS011;53450;42.584;23.366;2023-01-16T07:26:45;85.00;;;40.97;;
66593;SDS011;53450;42.584;23.366;2023-01-16T07:29:14;72.03;;;37.60;;
66593;SDS011;53450;42.584;23.366;2023-01-16T07:31:39;77.33;;;40.07;;
66593;SDS011;53450;42.584;23.366;2023-01-16T07:34:06;76.67;;;36.97;;
66593;SDS011;53450;42.584;23.366;2023-01-16T07:36:31;55.63;;;33.53;;
66593;SDS011;53450;42.584;23.366;2023-01-16T07:38:57;67.13;;;37.00;;
66593;SDS011;53450;42.584;23.366;2023-01-16T07:41:23;95.47;;;42.50;;
66593;SDS011;53450;42.584;23.366;2023-01-16T07:43:48;102.53;;;38.87;;
66593;SDS011;53450;42.584;23.366;2023-01-16T07:46:15;83.07;;;32.70;;
66593;SDS011;53450;42.584;23.366;2023-01-16T07:48:40;68.57;;;24.90;;
66593;SDS011;53450;42.584;23.366;2023-01-16T07:51:06;53.37;;;21.40;;
66593;SDS011;53450;42.584;23.366;2023-01-16T07:53:35;34.63;;;17.07;;
66593;SDS011;53450;42.584;23.366;2023-01-16T07:56:01;28.83;;;13.37;;
66593;SDS011;53450;42.584;23.366;2023-01-16T07:58:27;28.70;;;15.30;;
66593;SDS011;53450;42.584;23.366;2023-01-16T08:00:55;26.07;;;14.20;;
66593;SDS011;53450;42.584;23.366;2023-01-16T08:03:21;52.23;;;18.80;;
66593;SDS011;53450;42.584;23.366;2023-01-16T08:06:13;25.27;;;12.10;;
66593;SDS011;53450;42.584;23.366;2023-01-16T08:09:04;35.10;;;13.77;;
66593;SDS011;53450;42.584;23.366;2023-01-16T08:11:30;21.67;;;10.43;;
66593;SDS011;53450;42.584;23.366;2023-01-16T08:14:03;26.17;;;13.60;;
66593;SDS011;53450;42.584;23.366;2023-01-16T08:16:31;21.33;;;11.43;;
66593;SDS011;53450;42.584;23.366;2023-01-16T08:18:56;16.43;;;9.80;;
66593;SDS011;53450;42.584;23.366;2023-01-16T08:21:22;26.17;;;10.70;;
66593;SDS011;53450;42.584;23.366;2023-01-16T08:23:48;18.10;;;10.27;;
66593;SDS011;53450;42.584;23.366;2023-01-16T08:26:14;15.10;;;9.80;;
66593;SDS011;53450;42.584;23.366;2023-01-16T08:28:40;33.03;;;21.83;;
66593;SDS011;53450;42.584;23.366;2023-01-16T08:33:51;30.33;;;18.80;;
66593;SDS011;53450;42.584;23.366;2023-01-16T08:36:17;32.37;;;20.23;;
66593;SDS011;53450;42.584;23.366;2023-01-16T08:38:48;33.60;;;17.03;;
66593;SDS011;53450;42.584;23.366;2023-01-16T08:41:15;30.03;;;16.63;;
66593;SDS011;53450;42.584;23.366;2023-01-16T08:45:57;25.00;;;13.83;;
66593;SDS011;53450;42.584;23.366;2023-01-16T08:48:52;23.93;;;12.13;;
66593;SDS011;53450;42.584;23.366;2023-01-16T08:51:36;23.93;;;13.07;;
66593;SDS011;53450;42.584;23.366;2023-01-16T08:54:03;23.30;;;13.83;;
66593;SDS011;53450;42.584;23.366;2023-01-16T08:56:29;26.87;;;16.17;;
66593;SDS011;53450;42.584;23.366;2023-01-16T08:58:58;18.97;;;13.00;;
66593;SDS011;53450;42.584;23.366;2023-01-16T09:01:23;18.53;;;11.80;;
66593;SDS011;53450;42.584;23.366;2023-01-16T09:03:49;27.33;;;14.43;;
66593;SDS011;53450;42.584;23.366;2023-01-16T09:06:15;28.57;;;15.63;;
66593;SDS011;53450;42.584;23.366;2023-01-16T09:08:40;35.87;;;18.03;;
66593;SDS011;53450;42.584;23.366;2023-01-16T09:11:06;45.17;;;23.50;;
66593;SDS011;53450;42.584;23.366;2023-01-16T09:13:49;33.83;;;20.03;;
66593;SDS011;53450;42.584;23.366;2023-01-16T09:16:19;30.03;;;15.73;;
66593;SDS011;53450;42.584;23.366;2023-01-16T09:19:13;28.43;;;15.37;;
66593;SDS011;53450;42.584;23.366;2023-01-16T09:22:04;27.63;;;15.70;;
66593;SDS011;53450;42.584;23.366;2023-01-16T09:24:33;43.90;;;23.77;;
66593;SDS011;53450;42.584;23.366;2023-01-16T09:27:00;22.90;;;13.20;;
66593;SDS011;53450;42.584;23.366;2023-01-16T09:29:26;30.07;;;15.33;;
66593;SDS011;53450;42.584;23.366;2023-01-16T09:31:52;65.53;;;36.20;;
66593;SDS011;53450;42.584;23.366;2023-01-16T09:34:18;30.20;;;17.43;;
66593;SDS011;53450;42.584;23.366;2023-01-16T09:36:46;34.43;;;18.30;;
66593;SDS011;53450;42.584;23.366;2023-01-16T09:40:03;25.50;;;15.63;;
66593;SDS011;53450;42.584;23.366;2023-01-16T09:50:51;69.80;;;34.03;;
66593;SDS011;53450;42.584;23.366;2023-01-16T09:53:38;43.53;;;21.13;;
66593;SDS011;53450;42.584;23.366;2023-01-16T09:56:42;34.87;;;20.00;;
66593;SDS011;53450;42.584;23.366;2023-01-16T10:00:24;51.57;;;23.77;;
66593;SDS011;53450;42.584;23.366;2023-01-16T10:37:30;39.60;;;18.53;;
66593;SDS011;53450;42.584;23.366;2023-01-16T10:39:57;34.77;;;17.10;;
66593;SDS011;53450;42.584;23.366;2023-01-16T10:42:26;37.63;;;21.03;;
66593;SDS011;53450;42.584;23.366;2023-01-16T10:45:16;34.00;;;20.63;;
66593;SDS011;53450;42.584;23.366;2023-01-16T10:48:04;29.03;;;16.80;;
66593;SDS011;53450;42.584;23.366;2023-01-16T10:50:55;26.30;;;11.70;;
66593;SDS011;53450;42.584;23.366;2023-01-16T10:53:21;36.80;;;19.23;;
66593;SDS011;53450;42.584;23.366;2023-01-16T10:55:46;29.53;;;16.53;;
66593;SDS011;53450;42.584;23.366;2023-01-16T10:58:30;26.87;;;13.97;;
66593;SDS011;53450;42.584;23.366;2023-01-16T11:01:00;36.37;;;17.10;;
66593;SDS011;53450;42.584;23.366;2023-01-16T11:03:35;31.43;;;16.43;;
66593;SDS011;53450;42.584;23.366;2023-01-16T11:06:10;11.30;;;7.17;;
66593;SDS011;53450;42.584;23.366;2023-01-16T11:08:53;23.30;;;11.70;;
66593;SDS011;53450;42.584;23.366;2023-01-16T11:11:50;28.67;;;15.03;;
66593;SDS011;53450;42.584;23.366;2023-01-16T11:27:30;15.80;;;9.03;;
66593;SDS011;53450;42.584;23.366;2023-01-16T11:29:59;17.30;;;10.60;;
66593;SDS011;53450;42.584;23.366;2023-01-16T11:32:38;22.53;;;10.30;;
66593;SDS011;53450;42.584;23.366;2023-01-16T11:35:12;41.63;;;16.93;;
66593;SDS011;53450;42.584;23.366;2023-01-16T11:37:41;27.37;;;14.63;;
66593;SDS011;53450;42.584;23.366;2023-01-16T11:40:14;44.40;;;19.50;;
66593;SDS011;53450;42.584;23.366;2023-01-16T11:42:50;17.67;;;9.40;;
66593;SDS011;53450;42.584;23.366;2023-01-16T11:45:49;20.67;;;10.20;;
66593;SDS011;53450;42.584;23.366;2023-01-16T11:51:53;16.47;;;8.30;;
66593;SDS011;53450;42.584;23.366;2023-01-16T11:54:25;14.23;;;7.27;;
66593;SDS011;53450;42.584;23.366;2023-01-16T11:57:05;31.37;;;14.03;;
66593;SDS011;53450;42.584;23.366;2023-01-16T12:00:08;45.77;;;22.07;;
66593;SDS011;53450;42.584;23.366;2023-01-16T12:39:33;49.23;;;23.87;;
66593;SDS011;53450;42.584;23.366;2023-01-16T12:42:28;58.40;;;25.07;;
66593;SDS011;53450;42.584;23.366;2023-01-16T12:45:34;45.60;;;24.00;;
66593;SDS011;53450;42.584;23.366;2023-01-16T13:01:46;45.63;;;24.23;;
66593;SDS011;53450;42.584;23.366;2023-01-16T13:04:23;46.33;;;21.07;;
66593;SDS011;53450;42.584;23.366;2023-01-16T13:07:05;42.60;;;22.17;;
66593;SDS011;53450;42.584;23.366;2023-01-16T13:09:38;50.20;;;26.17;;
66593;SDS011;53450;42.584;23.366;2023-01-16T13:12:49;59.20;;;28.63;;
66593;SDS011;53450;42.584;23.366;2023-01-16T13:15:39;46.63;;;24.97;;
66593;SDS011;53450;42.584;23.366;2023-01-16T13:21:01;59.83;;;29.07;;
66593;SDS011;53450;42.584;23.366;2023-01-16T13:23:33;55.13;;;24.33;;
66593;SDS011;53450;42.584;23.366;2023-01-16T13:26:08;66.20;;;32.00;;
66593;SDS011;53450;42.584;23.366;2023-01-16T13:29:10;53.80;;;26.33;;
66593;SDS011;53450;42.584;23.366;2023-01-16T13:31:41;59.37;;;27.77;;
66593;SDS011;53450;42.584;23.366;2023-01-16T13:34:22;74.03;;;34.35;;
66593;SDS011;53450;42.584;23.366;2023-01-16T13:42:14;71.13;;;33.03;;
66593;SDS011;53450;42.584;23.366;2023-01-16T13:44:41;60.60;;;28.77;;
66593;SDS011;53450;42.584;23.366;2023-01-16T13:47:35;52.73;;;27.93;;
66593;SDS011;53450;42.584;23.366;2023-01-16T13:50:23;53.77;;;27.13;;
66593;SDS011;53450;42.584;23.366;2023-01-16T13:53:04;59.07;;;29.97;;
66593;SDS011;53450;42.584;23.366;2023-01-16T13:55:34;93.50;;;45.93;;
66593;SDS011;53450;42.584;23.366;2023-01-16T13:58:14;72.18;;;36.72;;
66593;SDS011;53450;42.584;23.366;2023-01-16T14:00:42;85.97;;;39.17;;
66593;SDS011;53450;42.584;23.366;2023-01-16T14:03:16;72.67;;;33.87;;
66593;SDS011;53450;42.584;23.366;2023-01-16T14:05:49;68.83;;;30.43;;
66593;SDS011;53450;42.584;23.366;2023-01-16T14:08:27;101.20;;;47.65;;
66593;SDS011;53450;42.584;23.366;2023-01-16T14:11:35;166.47;;;79.13;;
66593;SDS011;53450;42.584;23.366;2023-01-16T14:14:31;78.03;;;40.03;;
66593;SDS011;53450;42.584;23.366;2023-01-16T14:17:26;75.27;;;38.63;;
66593;SDS011;53450;42.584;23.366;2023-01-16T14:19:57;99.60;;;44.87;;
66593;SDS011;53450;42.584;23.366;2023-01-16T14:22:34;56.07;;;27.07;;
66593;SDS011;53450;42.584;23.366;2023-01-16T14:25:04;84.63;;;42.07;;
66593;SDS011;53450;42.584;23.366;2023-01-16T14:27:34;73.20;;;32.77;;
66593;SDS011;53450;42.584;23.366;2023-01-16T14:30:18;64.72;;;33.30;;
66593;SDS011;53450;42.584;23.366;2023-01-16T14:32:52;60.17;;;23.97;;
66593;SDS011;53450;42.584;23.366;2023-01-16T14:35:22;39.30;;;19.37;;
66593;SDS011;53450;42.584;23.366;2023-01-16T14:37:55;29.60;;;14.97;;
66593;SDS011;53450;42.584;23.366;2023-01-16T14:40:28;66.00;;;30.27;;
66593;SDS011;53450;42.584;23.366;2023-01-16T14:43:28;154.63;;;59.60;;
66593;SDS011;53450;42.584;23.366;2023-01-16T14:55:46;71.93;;;31.63;;
66593;SDS011;53450;42.584;23.366;2023-01-16T14:58:23;95.87;;;40.70;;
66593;SDS011;53450;42.584;23.366;2023-01-16T15:01:17;144.43;;;59.00;;
66593;SDS011;53450;42.584;23.366;2023-01-16T15:04:05;93.17;;;41.83;;
66593;SDS011;53450;42.584;23.366;2023-01-16T15:06:40;42.30;;;21.83;;
66593;SDS011;53450;42.584;23.366;2023-01-16T15:09:12;50.83;;;24.63;;
66593;SDS011;53450;42.584;23.366;2023-01-16T15:11:44;64.03;;;30.60;;
66593;SDS011;53450;42.584;23.366;2023-01-16T15:14:17;47.07;;;24.03;;
66593;SDS011;53450;42.584;23.366;2023-01-16T15:19:54;50.40;;;24.17;;
66593;SDS011;53450;42.584;23.366;2023-01-16T15:22:46;52.53;;;26.90;;
66593;SDS011;53450;42.584;23.366;2023-01-16T15:30:40;63.00;;;27.67;;
66593;SDS011;53450;42.584;23.366;2023-01-16T15:33:21;58.80;;;27.17;;
66593;SDS011;53450;42.584;23.366;2023-01-16T15:38:55;458.50;;;167.82;;
66593;SDS011;53450;42.584;23.366;2023-01-16T15:41:24;498.17;;;159.97;;
66593;SDS011;53450;42.584;23.366;2023-01-16T15:44:37;369.43;;;116.23;;
66593;SDS011;53450;42.584;23.366;2023-01-16T15:55:24;444.17;;;136.77;;
66593;SDS011;53450;42.584;23.366;2023-01-16T15:57:56;209.45;;;79.88;;
66593;SDS011;53450;42.584;23.366;2023-01-16T16:03:16;316.77;;;104.37;;
66593;SDS011;53450;42.584;23.366;2023-01-16T16:05:47;117.57;;;45.50;;
66593;SDS011;53450;42.584;23.366;2023-01-16T16:08:38;139.63;;;53.00;;
66593;SDS011;53450;42.584;23.366;2023-01-16T16:11:07;192.30;;;66.67;;
66593;SDS011;53450;42.584;23.366;2023-01-16T16:13:52;137.40;;;48.67;;
66593;SDS011;53450;42.584;23.366;2023-01-16T16:16:24;375.57;;;119.47;;
66593;SDS011;53450;42.584;23.366;2023-01-16T16:19:28;69.77;;;28.07;;
66593;SDS011;53450;42.584;23.366;2023-01-16T16:21:56;184.70;;;73.63;;
66593;SDS011;53450;42.584;23.366;2023-01-16T16:24:45;121.93;;;48.40;;
66593;SDS011;53450;42.584;23.366;2023-01-16T16:27:12;59.90;;;27.90;;
66593;SDS011;53450;42.584;23.366;2023-01-16T16:29:49;91.03;;;35.30;;
66593;SDS011;53450;42.584;23.366;2023-01-16T16:32:16;85.20;;;34.87;;
66593;SDS011;53450;42.584;23.366;2023-01-16T16:34:55;74.27;;;32.27;;
66593;SDS011;53450;42.584;23.366;2023-01-16T16:37:22;65.13;;;32.43;;
66593;SDS011;53450;42.584;23.366;2023-01-16T16:39:59;77.87;;;38.90;;
66593;SDS011;53450;42.584;23.366;2023-01-16T16:45:07;149.07;;;64.73;;
66593;SDS011;53450;42.584;23.366;2023-01-16T16:47:46;86.10;;;43.23;;
66593;SDS011;53450;42.584;23.366;2023-01-16T16:50:35;86.63;;;37.93;;
66593;SDS011;53450;42.584;23.366;2023-01-16T16:53:05;75.57;;;34.60;;
66593;SDS011;53450;42.584;23.366;2023-01-16T16:55:35;68.17;;;31.20;;
66593;SDS011;53450;42.584;23.366;2023-01-16T16:58:12;72.47;;;31.70;;
66593;SDS011;53450;42.584;23.366;2023-01-16T17:00:40;67.73;;;30.33;;
66593;SDS011;53450;42.584;23.366;2023-01-16T17:03:15;67.53;;;32.23;;
66593;SDS011;53450;42.584;23.366;2023-01-16T17:05:49;64.53;;;29.02;;
66593;SDS011;53450;42.584;23.366;2023-01-16T17:08:20;56.67;;;26.87;;
66593;SDS011;53450;42.584;23.366;2023-01-16T17:10:50;26.93;;;14.93;;
66593;SDS011;53450;42.584;23.366;2023-01-16T17:13:16;31.00;;;15.60;;
66593;SDS011;53450;42.584;23.366;2023-01-16T17:17:54;89.20;;;40.73;;
66593;SDS011;53450;42.584;23.366;2023-01-16T17:20:22;25.23;;;12.43;;
66593;SDS011;53450;42.584;23.366;2023-01-16T17:22:55;31.27;;;13.93;;
66593;SDS011;53450;42.584;23.366;2023-01-16T17:25:46;12.10;;;8.97;;
66593;SDS011;53450;42.584;23.366;2023-01-16T17:39:03;10.93;;;7.23;;
66593;SDS011;53450;42.584;23.366;2023-01-16T17:41:32;20.45;;;10.55;;
66593;SDS011;53450;42.584;23.366;2023-01-16T17:48:18;13.70;;;8.43;;
66593;SDS011;53450;42.584;23.366;2023-01-16T17:50:55;21.00;;;12.07;;
66593;SDS011;53450;42.584;23.366;2023-01-16T17:53:26;29.63;;;14.63;;
66593;SDS011;53450;42.584;23.366;2023-01-16T17:56:22;43.90;;;19.47;;
66593;SDS011;53450;42.584;23.366;2023-01-16T17:59:16;54.90;;;20.90;;
66593;SDS011;53450;42.584;23.366;2023-01-16T18:01:42;57.57;;;25.13;;
66593;SDS011;53450;42.584;23.366;2023-01-16T18:04:07;42.53;;;21.53;;
66593;SDS011;53450;42.584;23.366;2023-01-16T18:06:34;94.73;;;37.73;;
66593;SDS011;53450;42.584;23.366;2023-01-16T18:09:01;49.67;;;25.80;;
66593;SDS011;53450;42.584;23.366;2023-01-16T18:11:31;39.33;;;19.43;;
66593;SDS011;53450;42.584;23.366;2023-01-16T18:14:17;353.70;;;144.87;;
66593;SDS011;53450;42.584;23.366;2023-01-16T18:17:01;109.37;;;42.07;;
66593;SDS011;53450;42.584;23.366;2023-01-16T18:19:46;245.43;;;89.27;;
66593;SDS011;53450;42.584;23.366;2023-01-16T18:22:12;127.97;;;51.40;;
66593;SDS011;53450;42.584;23.366;2023-01-16T18:24:38;117.30;;;41.07;;
66593;SDS011;53450;42.584;23.366;2023-01-16T18:27:06;55.43;;;25.50;;
66593;SDS011;53450;42.584;23.366;2023-01-16T18:29:34;65.80;;;28.67;;
66593;SDS011;53450;42.584;23.366;2023-01-16T18:32:00;75.63;;;34.40;;